TAF KTMB
AMD KTMB 082058Z 0821/0918 19008KT P6SM SCT030 SCT250 FM090100 VRB03KT P6SM FEW030 FM091600 10006KT P6SM FEW030=
METAR KTMB
WC KTMB
WS KTMB
WV KTMB